Time;durP1;ratioP1;P1;durP2;ratioP2;P2;SDS_P1;SDS_P2;PMS_P1;PMS_P2;Temp;Humidity;BMP_temperature;BMP_pressure;BME280_temperature;BME280_humidity;BME280_pressure;Samples;Min_cycle;Max_cycle;Signal;HPM_P1;HPM_P2
2022/03/24 00:02:31;;;;;;;;;;;;;;;7.93;nan;101728.50;4701190;29;20018;-89
2022/03/24 00:05:11;;;;;;;;;;;;;;;7.89;nan;101719.66;4713505;29;20323;-90
2022/03/24 00:07:50;;;;;;;;;;;;;;;7.85;nan;101718.09;4716839;29;20006;-90
2022/03/24 00:10:30;;;;;;;;;;;;;;;7.81;nan;101720.13;4697145;29;20520;-90
2022/03/24 00:13:08;;;;;;;;;;;;;;;7.77;nan;101714.97;4713015;29;19916;-90
2022/03/24 00:15:47;;;;;;;;;;;;;;;7.73;nan;101719.72;4711118;29;19916;-90
2022/03/24 00:18:30;;;;;;;;;;;;;;;7.69;nan;101712.72;4713067;29;19923;-90
2022/03/24 00:21:08;;;;;;;;;;;;;;;7.66;nan;101706.59;4714176;29;19951;-90
2022/03/24 00:23:47;;;;;;;;;;;;;;;7.63;nan;101709.47;4711515;29;20355;-90
2022/03/24 00:26:26;;;;;;;;;;;;;;;7.58;nan;101712.47;4712422;29;20267;-90
2022/03/24 00:29:05;;;;;;;;;;;;;;;7.55;nan;101712.69;4710342;29;19920;-91
2022/03/24 00:31:45;;;;;;;;;;;;;;;7.52;nan;101707.41;4707509;29;19920;-90
2022/03/24 00:34:24;;;;;;;;;;;;;;;7.49;nan;101702.16;4712674;29;19916;-89
2022/03/24 00:37:04;;;;;;;;;;;;;;;7.45;nan;101706.91;4715466;29;19919;-91
2022/03/24 00:39:43;;;;;;;;;;;;;;;7.43;nan;101697.09;4714675;29;19920;-90
2022/03/24 00:42:23;;;;;;;;;;;;;;;7.41;nan;101701.72;4710563;29;20271;-89
2022/03/24 00:45:02;;;;;;;;;;;;;;;7.37;nan;101705.59;4720233;29;19915;-89
2022/03/24 00:47:42;;;;;;;;;;;;;;;7.35;nan;101699.41;4713172;29;19916;-89
2022/03/24 00:50:21;;;;;;;;;;;;;;;7.33;nan;101706.75;4713583;29;19919;-90
2022/03/24 00:53:01;;;;;;;;;;;;;;;7.29;nan;101695.19;4714138;29;19916;-89
2022/03/24 00:55:40;;;;;;;;;;;;;;;7.26;nan;101694.50;4714064;29;19959;-90
2022/03/24 00:58:18;;;;;;;;;;;;;;;7.21;nan;101692.91;4713652;29;19916;-89
2022/03/24 01:00:58;;;;;;;;;;;;;;;7.18;nan;101692.22;4713438;29;19920;-90
2022/03/24 01:03:38;;;;;;;;;;;;;;;7.14;nan;101690.66;4715833;29;19923;-90
2022/03/24 01:06:18;;;;;;;;;;;;;;;7.11;nan;101686.28;4711258;29;19919;-90
2022/03/24 01:08:58;;;;;;;;;;;;;;;7.08;nan;101681.03;4703614;29;19915;-91
2022/03/24 01:11:37;;;;;;;;;;;;;;;7.05;nan;101680.31;4710809;29;19916;-90
2022/03/24 01:14:16;;;;;;;;;;;;;;;7.03;nan;101683.13;4708631;29;20290;-90
2022/03/24 01:16:55;;;;;;;;;;;;;;;7.01;nan;101676.03;4705504;29;19924;-91
2022/03/24 01:19:35;;;;;;;;;;;;;;;6.98;nan;101676.22;4706267;29;19920;-90
2022/03/24 01:22:14;;;;;;;;;;;;;;;6.95;nan;101679.09;4710992;29;19916;-90
2022/03/24 01:24:53;;;;;;;;;;;;;;;6.91;nan;101675.72;4709877;29;19916;-90
2022/03/24 01:27:32;;;;;;;;;;;;;;;6.86;nan;101675.09;4714544;29;19920;-90
2022/03/24 01:30:11;;;;;;;;;;;;;;;6.82;nan;101677.09;4710374;29;19916;-90
2022/03/24 01:32:50;;;;;;;;;;;;;;;6.80;nan;101681.72;4705969;29;20476;-87
2022/03/24 01:35:29;;;;;;;;;;;;;;;6.77;nan;101676.47;4716794;29;19916;-88
2022/03/24 01:38:09;;;;;;;;;;;;;;;6.73;nan;101669.47;4707793;29;19915;-89
2022/03/24 01:40:48;;;;;;;;;;;;;;;6.72;nan;101672.25;4716957;29;20010;-88
2022/03/24 01:43:27;;;;;;;;;;;;;;;6.69;nan;101670.63;4710643;29;19916;-88
2022/03/24 01:46:07;;;;;;;;;;;;;;;6.67;nan;101674.38;4702040;29;20295;-88
2022/03/24 01:48:46;;;;;;;;;;;;;;;6.65;nan;101666.34;4706557;29;19916;-88
2022/03/24 01:51:25;;;;;;;;;;;;;;;6.61;nan;101670.16;4708820;29;19915;-89
2022/03/24 01:54:04;;;;;;;;;;;;;;;6.60;nan;101663.00;4709771;29;20355;-89
2022/03/24 01:56:43;;;;;;;;;;;;;;;6.57;nan;101667.72;4710631;29;19920;-88
2022/03/24 01:59:22;;;;;;;;;;;;;;;6.53;nan;101658.88;4712568;29;20638;-88
2022/03/24 02:02:01;;;;;;;;;;;;;;;6.50;nan;101656.31;4700775;29;19916;-88
2022/03/24 02:04:40;;;;;;;;;;;;;;;6.48;nan;101666.41;4706441;29;19915;-88
2022/03/24 02:07:20;;;;;;;;;;;;;;;6.45;nan;101658.44;4706384;29;19924;-87
2022/03/24 02:09:59;;;;;;;;;;;;;;;6.42;nan;101661.31;4705572;29;19947;-89
2022/03/24 02:12:38;;;;;;;;;;;;;;;6.38;nan;101659.72;4709028;29;19924;-89
2022/03/24 02:15:18;;;;;;;;;;;;;;;6.35;nan;101662.59;4710584;29;19915;-89
2022/03/24 02:17:58;;;;;;;;;;;;;;;6.31;nan;101656.47;4709003;29;19916;-89
2022/03/24 02:20:37;;;;;;;;;;;;;;;6.29;nan;101657.50;4709523;29;19923;-88
2022/03/24 02:23:15;;;;;;;;;;;;;;;6.26;nan;101655.88;4710764;29;19912;-89
2022/03/24 02:25:55;;;;;;;;;;;;;;;6.23;nan;101656.03;4710976;29;19951;-89
2022/03/24 02:28:34;;;;;;;;;;;;;;;6.21;nan;101648.94;4707466;29;19920;-88
2022/03/24 02:31:14;;;;;;;;;;;;;;;6.17;nan;101651.81;4707125;29;20545;-89
2022/03/24 02:34:37;;;;;;;;;;;;;;;6.16;nan;101650.06;4709365;29;19915;-89
2022/03/24 02:36:52;;;;;;;;;;;;;;;6.13;nan;101644.81;4716889;29;19916;-89
2022/03/24 02:39:31;;;;;;;;;;;;;;;6.11;nan;101654.84;4709879;29;19924;-88
2022/03/24 02:42:14;;;;;;;;;;;;;;;6.08;nan;101654.13;4709157;29;19912;-88
2022/03/24 02:44:54;;;;;;;;;;;;;;;6.06;nan;101656.09;4706237;29;19916;-89
2022/03/24 02:47:33;;;;;;;;;;;;;;;6.03;nan;101650.81;4710182;29;19916;-88
2022/03/24 02:50:12;;;;;;;;;;;;;;;6.01;nan;101655.44;4710818;29;20366;-89
2022/03/24 02:52:51;;;;;;;;;;;;;;;5.97;nan;101654.72;4710801;29;19915;-89
2022/03/24 02:55:30;;;;;;;;;;;;;;;5.94;nan;101657.59;4705117;29;19916;-88
2022/03/24 02:58:09;;;;;;;;;;;;;;;5.91;nan;101663.19;4706449;29;19912;-88
2022/03/24 03:00:48;;;;;;;;;;;;;;;5.89;nan;101658.81;4708996;29;19928;-89
2022/03/24 03:03:27;;;;;;;;;;;;;;;5.85;nan;101658.94;4711965;29;19915;-89
2022/03/24 03:06:06;;;;;;;;;;;;;;;5.83;nan;101660.88;4709685;29;19920;-88
2022/03/24 03:08:46;;;;;;;;;;;;;;;5.80;nan;101660.16;4698312;29;19976;-89
2022/03/24 03:11:24;;;;;;;;;;;;;;;5.78;nan;101659.34;4707529;29;19919;-89
2022/03/24 03:14:03;;;;;;;;;;;;;;;5.75;nan;101660.38;4710402;29;20255;-90
2022/03/24 03:16:44;;;;;;;;;;;;;;;5.72;nan;101655.13;4703322;29;20354;-88
2022/03/24 03:19:23;;;;;;;;;;;;;;;5.71;nan;101660.63;4697436;29;20213;-88
2022/03/24 03:22:04;;;;;;;;;;;;;;;5.68;nan;101658.94;4708925;29;20358;-89
2022/03/24 03:24:43;;;;;;;;;;;;;;;5.64;nan;101657.34;4708004;29;19916;-89
2022/03/24 03:27:22;;;;;;;;;;;;;;;5.63;nan;101661.00;4700178;29;19916;-88
2022/03/24 03:30:01;;;;;;;;;;;;;;;5.61;nan;101668.38;4708999;29;19915;-89
2022/03/24 03:32:42;;;;;;;;;;;;;;;5.60;nan;101660.31;4704868;29;19935;-88
2022/03/24 03:35:22;;;;;;;;;;;;;;;5.59;nan;101666.69;4708497;29;19943;-88
2022/03/24 03:38:01;;;;;;;;;;;;;;;5.56;nan;101662.31;4702799;29;19916;-88
2022/03/24 03:40:40;;;;;;;;;;;;;;;5.51;nan;101662.53;4706034;29;20370;-88
2022/03/24 03:43:19;;;;;;;;;;;;;;;5.49;nan;101664.44;4705383;29;19916;-88
2022/03/24 03:45:58;;;;;;;;;;;;;;;5.47;nan;101665.47;4709295;29;20370;-88
2022/03/24 03:48:40;;;;;;;;;;;;;;;5.45;nan;101659.25;4708593;29;19924;-89
2022/03/24 03:51:19;;;;;;;;;;;;;;;5.42;nan;101654.00;4713781;29;19920;-89
2022/03/24 03:53:58;;;;;;;;;;;;;;;5.39;nan;101671.31;4708748;29;20018;-87
2022/03/24 03:56:37;;;;;;;;;;;;;;;5.36;nan;101666.06;4715491;29;19920;-89
2022/03/24 03:59:16;;;;;;;;;;;;;;;5.35;nan;101664.28;4709136;29;19959;-89
2022/03/24 04:01:57;;;;;;;;;;;;;;;5.33;nan;101668.03;4708922;29;19916;-88
2022/03/24 04:04:36;;;;;;;;;;;;;;;5.30;nan;101662.78;4711601;29;19920;-88
2022/03/24 04:07:15;;;;;;;;;;;;;;;5.29;nan;101666.44;4707582;29;19979;-89
2022/03/24 04:09:54;;;;;;;;;;;;;;;5.26;nan;101655.75;4707472;29;20342;-89
2022/03/24 04:12:34;;;;;;;;;;;;;;;5.22;nan;101657.72;4712164;29;19915;-89
2022/03/24 04:15:13;;;;;;;;;;;;;;;5.49;0.00;60892.56;4708935;29;19915;-88
2022/03/24 04:17:52;;;;;;;;;;;;;;;-145.06;0.00;60892.56;4708728;29;20002;-88
2022/03/24 04:20:31;;;;;;;;;;;;;;;-145.06;0.00;60892.56;4707885;29;19920;-89
2022/03/24 04:23:11;;;;;;;;;;;;;;;-145.06;0.00;60892.56;4712786;29;19920;-88
2022/03/24 04:25:51;;;;;;;;;;;;;;;-145.06;0.00;60892.56;4707096;29;19919;-89
2022/03/24 04:28:30;;;;;;;;;;;;;;;-145.06;0.00;60892.56;4704793;29;19912;-88
2022/03/24 04:31:10;;;;;;;;;;;;;;;-145.06;0.00;60892.56;4707862;29;19916;-89
2022/03/24 04:33:48;;;;;;;;;;;;;;;-145.06;0.00;60892.56;4708309;29;19943;-89
2022/03/24 04:36:27;;;;;;;;;;;;;;;-145.06;0.00;60892.56;4709269;29;20011;-89
2022/03/24 04:39:06;;;;;;;;;;;;;;;-145.06;0.00;60892.56;4690501;29;20267;-88
2022/03/24 04:41:45;;;;;;;;;;;;;;;-145.06;0.00;60892.56;4707549;29;20370;-90
2022/03/24 04:44:24;;;;;;;;;;;;;;;-145.06;0.00;60892.56;4707489;29;20290;-89
2022/03/24 04:47:03;;;;;;;;;;;;;;;-145.06;0.00;60892.56;4712904;29;19991;-89
2022/03/24 04:49:42;;;;;;;;;;;;;;;-145.06;0.00;60892.56;4711235;29;20433;-88
2022/03/24 04:52:22;;;;;;;;;;;;;;;-145.06;0.00;60892.56;4711659;29;20006;-89
2022/03/24 04:55:01;;;;;;;;;;;;;;;-145.06;0.00;60892.56;4711612;29;19916;-88
2022/03/24 04:57:41;;;;;;;;;;;;;;;-145.06;0.00;60892.56;4703656;29;19915;-90
2022/03/24 05:00:20;;;;;;;;;;;;;;;-145.06;0.00;60892.56;4710627;29;19920;-87
2022/03/24 05:02:59;;;;;;;;;;;;;;;-145.06;0.00;60892.56;4710025;29;20006;-89
2022/03/24 05:05:38;;;;;;;;;;;;;;;-145.06;0.00;60892.56;4704052;29;20371;-88
2022/03/24 05:08:17;;;;;;;;;;;;;;;-145.06;0.00;60892.56;4714367;29;19998;-89
2022/03/24 05:10:56;;;;;;;;;;;;;;;-145.06;0.00;60892.56;4712019;29;19920;-90
2022/03/24 05:13:36;;;;;;;;;;;;;;;-145.06;0.00;60892.56;4711227;29;19916;-90
2022/03/24 05:16:14;;;;;;;;;;;;;;;-145.06;0.00;60892.56;4709886;29;20354;-90
2022/03/24 05:18:54;;;;;;;;;;;;;;;-145.06;0.00;60892.56;4710902;29;19916;-89
2022/03/24 05:21:32;;;;;;;;;;;;;;;-145.06;0.00;60892.56;4710933;29;19916;-90
2022/03/24 05:24:12;;;;;;;;;;;;;;;-145.06;0.00;60892.56;4708547;29;19915;-89
2022/03/24 05:26:51;;;;;;;;;;;;;;;-145.06;0.00;60892.56;4706570;29;19916;-89
2022/03/24 05:29:30;;;;;;;;;;;;;;;-145.06;0.00;60892.56;4710949;29;19916;-91
2022/03/24 05:32:09;;;;;;;;;;;;;;;-145.06;0.00;60892.56;4711848;29;20332;-90
2022/03/24 05:34:48;;;;;;;;;;;;;;;-145.06;0.00;60892.56;4715559;29;19912;-90
2022/03/24 05:37:28;;;;;;;;;;;;;;;-145.06;0.00;60892.56;4714044;29;20018;-91
2022/03/24 05:40:16;;;;;;;;;;;;;;;-145.06;0.00;60892.56;4707214;29;19924;-91
2022/03/24 05:42:55;;;;;;;;;;;;;;;-145.06;0.00;60892.56;4710945;29;20007;-89
2022/03/24 05:45:34;;;;;;;;;;;;;;;-145.06;0.00;60892.56;4709331;29;19916;-90
2022/03/24 05:48:13;;;;;;;;;;;;;;;-145.06;0.00;60892.56;4706140;29;19916;-90
2022/03/24 05:50:52;;;;;;;;;;;;;;;-145.06;0.00;60892.56;4710746;29;20355;-90
2022/03/24 05:53:32;;;;;;;;;;;;;;;-145.06;0.00;60892.56;4701471;29;19958;-90
2022/03/24 05:56:11;;;;;;;;;;;;;;;-145.06;0.00;60892.56;4702377;29;20366;-91
2022/03/24 05:58:50;;;;;;;;;;;;;;;-145.06;0.00;60892.56;4715686;29;19912;-91
2022/03/24 06:01:29;;;;;;;;;;;;;;;-145.06;0.00;60892.56;4710123;29;19916;-90
2022/03/24 06:04:08;;;;;;;;;;;;;;;-145.06;0.00;60892.56;4710050;29;19916;-90
2022/03/24 06:06:50;;;;;;;;;;;;;;;-145.06;0.00;60892.56;4702735;29;20267;-90
2022/03/24 06:09:30;;;;;;;;;;;;;;;-145.06;0.00;60892.56;4694985;29;19923;-91
2022/03/24 06:12:10;;;;;;;;;;;;;;;-145.06;0.00;60892.56;4708979;29;19915;-91
2022/03/24 06:14:51;;;;;;;;;;;;;;;-145.06;0.00;60892.56;4709038;29;19916;-90
2022/03/24 06:17:36;;;;;;;;;;;;;;;-145.06;0.00;60892.56;4707446;29;19916;-90
2022/03/24 06:20:15;;;;;;;;;;;;;;;-145.06;0.00;60892.56;4708735;29;19919;-90
2022/03/24 06:22:55;;;;;;;;;;;;;;;-145.06;0.00;60892.56;4710074;29;19916;-90
2022/03/24 06:25:34;;;;;;;;;;;;;;;-145.06;0.00;60892.56;4707012;29;20559;-91
2022/03/24 06:28:13;;;;;;;;;;;;;;;-145.06;0.00;60892.56;4708981;29;19915;-90
2022/03/24 06:30:52;;;;;;;;;;;;;;;-145.06;0.00;60892.56;4703396;29;19916;-90
2022/03/24 06:33:31;;;;;;;;;;;;;;;-145.06;0.00;60892.56;4710326;29;19915;-90
2022/03/24 06:36:10;;;;;;;;;;;;;;;-145.06;0.00;60892.56;4705762;29;20006;-90
2022/03/24 06:38:49;;;;;;;;;;;;;;;-145.06;0.00;60892.56;4705326;29;19916;-90
2022/03/24 06:41:28;;;;;;;;;;;;;;;-145.06;0.00;60892.56;4706535;29;20034;-91
2022/03/24 06:44:07;;;;;;;;;;;;;;;-145.06;0.00;60892.56;4702616;29;19919;-89
2022/03/24 06:46:48;;;;;;;;;;;;;;;-145.06;0.00;60892.56;4704784;29;20467;-90
2022/03/24 06:49:26;;;;;;;;;;;;;;;-145.06;0.00;60892.56;4710182;29;20002;-89
2022/03/24 06:52:06;;;;;;;;;;;;;;;-145.06;0.00;60892.56;4704746;29;20263;-91
2022/03/24 06:54:45;;;;;;;;;;;;;;;-145.06;0.00;60892.56;4700363;29;19915;-91
2022/03/24 06:57:26;;;;;;;;;;;;;;;-145.06;0.00;60892.56;4706015;29;19915;-90
2022/03/24 07:00:12;;;;;;;;;;;;;;;-145.06;0.00;60892.56;4708553;29;19920;-90
2022/03/24 07:02:52;;;;;;;;;;;;;;;5.32;0.00;60892.56;4702244;29;19924;-90
2022/03/24 07:05:31;;;;;;;;;;;;;;;5.32;0.00;60892.56;4705478;29;20346;-90
2022/03/24 07:08:11;;;;;;;;;;;;;;;5.41;0.00;60892.56;4701892;29;19955;-90
2022/03/24 07:10:55;;;;;;;;;;;;;;;5.41;0.00;60892.56;4700344;29;19943;-91
2022/03/24 07:13:37;;;;;;;;;;;;;;;5.47;0.00;60892.56;4698311;29;20347;-91
2022/03/24 07:16:17;;;;;;;;;;;;;;;-145.06;0.00;60892.56;4712560;29;19963;-91
2022/03/24 07:18:59;;;;;;;;;;;;;;;-145.06;0.00;60892.56;4709836;29;19967;-91
2022/03/24 07:21:38;;;;;;;;;;;;;;;-145.06;0.00;60892.56;4707233;29;19916;-91
2022/03/24 07:24:19;;;;;;;;;;;;;;;-145.06;0.00;60892.56;4699594;29;19923;-90
2022/03/24 07:26:58;;;;;;;;;;;;;;;-145.06;0.00;60892.56;4726825;29;20354;-91
2022/03/24 07:29:37;;;;;;;;;;;;;;;-145.06;0.00;60892.56;4715920;29;19998;-91
2022/03/24 07:32:16;;;;;;;;;;;;;;;-145.06;0.00;60892.56;4692022;29;19920;-91
2022/03/24 07:34:56;;;;;;;;;;;;;;;-145.06;0.00;60892.56;4699339;29;19920;-91
2022/03/24 07:37:35;;;;;;;;;;;;;;;-145.06;0.00;60892.56;4703206;29;19916;-90
2022/03/24 07:40:18;;;;;;;;;;;;;;;-145.06;0.00;60892.56;4710414;29;19920;-91
2022/03/24 07:42:58;;;;;;;;;;;;;;;-145.06;0.00;60892.56;4707887;29;19955;-91
2022/03/24 07:45:38;;;;;;;;;;;;;;;6.52;0.00;60892.56;4695720;29;20267;-91
2022/03/24 07:48:17;;;;;;;;;;;;;;;6.79;0.00;60892.56;4709361;29;19919;-91
2022/03/24 07:50:57;;;;;;;;;;;;;;;-145.06;0.00;60892.56;4691818;29;19916;-91
2022/03/24 07:53:48;;;;;;;;;;;;;;;-145.06;0.00;60892.56;4699985;29;19915;-91
2022/03/24 07:56:28;;;;;;;;;;;;;;;-145.06;0.00;60892.56;4706426;29;19911;-92
2022/03/24 07:59:07;;;;;;;;;;;;;;;-145.06;0.00;60892.56;4717108;29;19947;-91
2022/03/24 08:01:46;;;;;;;;;;;;;;;-145.06;0.00;60892.56;4715248;29;19915;-89
2022/03/24 08:04:25;;;;;;;;;;;;;;;-145.06;0.00;60892.56;4708529;29;19920;-90
2022/03/24 08:07:04;;;;;;;;;;;;;;;-145.06;0.00;60892.56;4718450;29;19911;-91
2022/03/24 08:09:43;;;;;;;;;;;;;;;-145.06;0.00;60892.56;4708222;29;19923;-88
2022/03/24 08:12:22;;;;;;;;;;;;;;;-145.06;0.00;60892.56;4693940;29;20264;-91
2022/03/24 08:15:01;;;;;;;;;;;;;;;-145.06;0.00;60892.56;4707406;29;19916;-91
2022/03/24 08:17:40;;;;;;;;;;;;;;;-145.06;0.00;60892.56;4712154;29;19915;-91
2022/03/24 08:20:19;;;;;;;;;;;;;;;-145.06;0.00;60892.56;4712001;29;19920;-92
2022/03/24 08:22:58;;;;;;;;;;;;;;;-145.06;0.00;60892.56;4713135;29;19916;-91
2022/03/24 08:25:40;;;;;;;;;;;;;;;-145.06;0.00;60892.56;4719143;29;19916;-90
2022/03/24 08:28:18;;;;;;;;;;;;;;;-145.06;0.00;60892.56;4711987;29;19916;-89
2022/03/24 08:30:57;;;;;;;;;;;;;;;-145.06;0.00;60892.56;4711453;29;19912;-90
2022/03/24 08:33:36;;;;;;;;;;;;;;;-145.06;0.00;60892.56;4709625;29;20389;-90
2022/03/24 08:36:15;;;;;;;;;;;;;;;-145.06;0.00;60892.56;4721143;29;19911;-91
2022/03/24 08:38:56;;;;;;;;;;;;;;;-145.06;0.00;60892.56;4711598;29;20244;-89
2022/03/24 08:41:35;;;;;;;;;;;;;;;-145.06;0.00;60892.56;4711411;29;19920;-90
2022/03/24 08:44:14;;;;;;;;;;;;;;;-145.06;0.00;60892.56;4711994;29;19912;-90
2022/03/24 08:47:00;;;;;;;;;;;;;;;-145.06;0.00;60892.56;4711731;29;20251;-90
2022/03/24 08:49:39;;;;;;;;;;;;;;;-145.06;0.00;60892.56;4708389;29;19912;-89
2022/03/24 08:52:21;;;;;;;;;;;;;;;-145.06;0.00;60892.56;4701917;29;19911;-90
2022/03/24 08:54:59;;;;;;;;;;;;;;;-145.06;0.00;60892.56;4710970;29;19955;-90
2022/03/24 08:57:39;;;;;;;;;;;;;;;-145.06;0.00;60892.56;4706364;29;19911;-90
2022/03/24 09:00:18;;;;;;;;;;;;;;;-145.06;0.00;60892.56;4702538;29;19966;-91
2022/03/24 09:02:56;;;;;;;;;;;;;;;-145.06;0.00;60892.56;4711261;29;19916;-89
2022/03/24 09:05:36;;;;;;;;;;;;;;;-145.06;0.00;60892.56;4698155;29;19915;-90
2022/03/24 09:08:14;;;;;;;;;;;;;;;-145.06;0.00;60892.56;4704456;29;19916;-90
2022/03/24 09:10:53;;;;;;;;;;;;;;;-145.06;0.00;60892.56;4707573;29;20308;-89
2022/03/24 09:13:32;;;;;;;;;;;;;;;-145.06;0.00;60892.56;4702113;29;19915;-89
2022/03/24 09:16:11;;;;;;;;;;;;;;;-145.06;0.00;60892.56;4710013;29;19920;-90
2022/03/24 09:18:50;;;;;;;;;;;;;;;-145.06;0.00;60892.56;4704602;29;20039;-90
2022/03/24 09:21:29;;;;;;;;;;;;;;;-145.06;0.00;60892.56;4710541;29;19920;-90
2022/03/24 09:24:08;;;;;;;;;;;;;;;-145.06;0.00;60892.56;4714472;29;19915;-88
2022/03/24 09:26:47;;;;;;;;;;;;;;;-145.06;0.00;60892.56;4709461;29;19915;-89
2022/03/24 09:29:26;;;;;;;;;;;;;;;-145.06;0.00;60892.56;4709907;29;19919;-91
2022/03/24 09:32:09;;;;;;;;;;;;;;;-145.06;0.00;60892.56;4705214;29;19950;-90
2022/03/24 09:34:48;;;;;;;;;;;;;;;-145.06;0.00;60892.56;4712960;29;19916;-90
2022/03/24 09:37:28;;;;;;;;;;;;;;;-145.06;0.00;60892.56;4705210;29;19951;-90
2022/03/24 09:40:08;;;;;;;;;;;;;;;-145.06;0.00;60892.56;4706741;29;19967;-89
2022/03/24 09:42:47;;;;;;;;;;;;;;;-145.06;0.00;60892.56;4699665;29;20366;-90
2022/03/24 09:45:26;;;;;;;;;;;;;;;-145.06;0.00;60892.56;4710108;29;19924;-91
2022/03/24 09:48:10;;;;;;;;;;;;;;;-145.06;0.00;60892.56;4710269;29;19911;-92
2022/03/24 09:50:49;;;;;;;;;;;;;;;-145.06;0.00;60892.56;4709835;29;19959;-92
2022/03/24 09:53:28;;;;;;;;;;;;;;;-145.06;0.00;60892.56;4693348;29;20283;-93
2022/03/24 09:56:08;;;;;;;;;;;;;;;-145.06;0.00;60892.56;4692341;29;19920;-92
2022/03/24 09:58:48;;;;;;;;;;;;;;;-145.06;0.00;60892.56;4698014;29;19920;-91
2022/03/24 10:01:27;;;;;;;;;;;;;;;-145.06;0.00;60892.56;4703243;29;19923;-89
2022/03/24 10:04:11;;;;;;;;;;;;;;;-145.06;0.00;60892.56;4694427;29;19915;-89
2022/03/24 10:07:03;;;;;;;;;;;;;;;-145.06;0.00;60892.56;4707425;29;19915;-90
2022/03/24 10:09:43;;;;;;;;;;;;;;;-145.06;0.00;60892.56;4700420;29;19916;-89
2022/03/24 10:12:24;;;;;;;;;;;;;;;-145.06;0.00;60892.56;4695628;29;20613;-91
2022/03/24 10:15:11;;;;;;;;;;;;;;;-145.06;0.00;60892.56;4701727;29;19943;-90
2022/03/24 10:17:51;;;;;;;;;;;;;;;-145.06;0.00;60892.56;4710461;29;19916;-89
2022/03/24 10:20:30;;;;;;;;;;;;;;;-145.06;0.00;60892.56;4709038;29;20604;-90
2022/03/24 10:23:11;;;;;;;;;;;;;;;-145.06;0.00;60892.56;4709385;29;19912;-89
2022/03/24 10:25:52;;;;;;;;;;;;;;;-145.06;0.00;60892.56;4709393;29;19916;-89
2022/03/24 10:28:31;;;;;;;;;;;;;;;-145.06;0.00;60892.56;4709445;29;19998;-91
2022/03/24 10:31:10;;;;;;;;;;;;;;;-145.06;0.00;60892.56;4709121;29;19912;-89
2022/03/24 10:33:49;;;;;;;;;;;;;;;-145.06;0.00;60892.56;4705741;29;19960;-92
2022/03/24 10:36:28;;;;;;;;;;;;;;;-145.06;0.00;60892.56;4699178;29;19915;-90
2022/03/24 10:39:08;;;;;;;;;;;;;;;-145.06;0.00;60892.56;4708973;29;19923;-90
2022/03/24 10:41:47;;;;;;;;;;;;;;;-145.06;0.00;60892.56;4708324;29;19919;-90
2022/03/24 10:44:26;;;;;;;;;;;;;;;-145.06;0.00;60892.56;4697557;29;19911;-89
2022/03/24 10:47:05;;;;;;;;;;;;;;;-145.06;0.00;60892.56;4707308;29;20368;-89
2022/03/24 10:49:44;;;;;;;;;;;;;;;-145.06;0.00;60892.56;4715592;29;19999;-90
2022/03/24 10:52:23;;;;;;;;;;;;;;;-145.06;0.00;60892.56;4708744;29;19916;-89
2022/03/24 10:55:02;;;;;;;;;;;;;;;-145.06;0.00;60892.56;4708313;29;20370;-89
2022/03/24 10:57:41;;;;;;;;;;;;;;;-145.06;0.00;60892.56;4708752;29;19959;-90
2022/03/24 11:00:20;;;;;;;;;;;;;;;-145.06;0.00;60892.56;4704418;29;20425;-89
2022/03/24 11:03:00;;;;;;;;;;;;;;;-145.06;0.00;60892.56;4705541;29;19912;-90
2022/03/24 11:05:39;;;;;;;;;;;;;;;-145.06;0.00;60892.56;4713960;29;19935;-90
2022/03/24 11:08:19;;;;;;;;;;;;;;;-145.06;0.00;60892.56;4708276;29;20381;-89
2022/03/24 11:10:58;;;;;;;;;;;;;;;-145.06;0.00;60892.56;4705834;29;19915;-90
2022/03/24 11:13:52;;;;;;;;;;;;;;;-145.06;0.00;60892.56;4713344;29;19916;-90
2022/03/24 11:16:33;;;;;;;;;;;;;;;-145.06;0.00;60892.56;4708502;29;19916;-90
2022/03/24 11:19:15;;;;;;;;;;;;;;;-145.06;0.00;60892.56;4690495;29;20339;-90
2022/03/24 11:21:58;;;;;;;;;;;;;;;-145.06;0.00;60892.56;4701548;29;19916;-89
2022/03/24 11:24:37;;;;;;;;;;;;;;;-145.06;0.00;60892.56;4695435;29;19919;-89
2022/03/24 11:27:17;;;;;;;;;;;;;;;-145.06;0.00;60892.56;4708193;29;20481;-89
2022/03/24 11:29:57;;;;;;;;;;;;;;;-145.06;0.00;60892.56;4707973;29;19915;-90
2022/03/24 11:32:36;;;;;;;;;;;;;;;-145.06;0.00;60892.56;4709236;29;19915;-90
2022/03/24 11:35:16;;;;;;;;;;;;;;;-145.06;0.00;60892.56;4704375;29;20294;-90
2022/03/24 11:37:55;;;;;;;;;;;;;;;-145.06;0.00;60892.56;4704193;29;20425;-90
2022/03/24 11:40:34;;;;;;;;;;;;;;;-145.06;0.00;60892.56;4698872;29;19994;-89
2022/03/24 11:43:15;;;;;;;;;;;;;;;-145.06;0.00;60892.56;4711353;29;19912;-90
2022/03/24 11:46:02;;;;;;;;;;;;;;;-145.06;0.00;60892.56;4707259;29;20402;-90
2022/03/24 11:48:42;;;;;;;;;;;;;;;19.54;0.00;60892.56;4713656;29;19916;-90
2022/03/24 11:51:23;;;;;;;;;;;;;;;-145.06;0.00;60892.56;4714093;29;20343;-90
2022/03/24 11:54:03;;;;;;;;;;;;;;;-145.06;0.00;60892.56;4707785;29;19912;-90
2022/03/24 11:56:42;;;;;;;;;;;;;;;19.77;0.00;60892.56;4707540;29;19915;-90
2022/03/24 11:59:23;;;;;;;;;;;;;;;-145.06;0.00;60892.56;4702800;29;19999;-90
2022/03/24 12:02:15;;;;;;;;;;;;;;;-145.06;0.00;60892.56;4701839;29;19916;-89
2022/03/24 12:04:58;;;;;;;;;;;;;;;-145.06;0.00;60892.56;4704728;29;19916;-89
2022/03/24 12:07:37;;;;;;;;;;;;;;;-145.06;0.00;60892.56;4702165;29;19919;-90
2022/03/24 12:10:29;;;;;;;;;;;;;;;-145.06;0.00;60892.56;4702037;29;20709;-89
2022/03/24 12:13:21;;;;;;;;;;;;;;;-145.06;0.00;60892.56;4703447;29;20003;-89
2022/03/24 12:16:11;;;;;;;;;;;;;;;-145.06;0.00;60892.56;4719875;29;19911;-89
2022/03/24 12:18:52;;;;;;;;;;;;;;;-145.06;0.00;60892.56;4704305;29;19954;-91
2022/03/24 12:21:31;;;;;;;;;;;;;;;-145.06;0.00;60892.56;4700930;29;19920;-89
2022/03/24 12:24:17;;;;;;;;;;;;;;;-145.06;0.00;60892.56;4706988;29;20545;-89
2022/03/24 12:26:56;;;;;;;;;;;;;;;-145.06;0.00;60892.56;4711328;29;20010;-89
2022/03/24 12:29:35;;;;;;;;;;;;;;;-145.06;0.00;60892.56;4707049;29;19994;-90
2022/03/24 12:32:26;;;;;;;;;;;;;;;-145.06;0.00;60892.56;4706177;29;19920;-89
2022/03/24 12:35:06;;;;;;;;;;;;;;;-145.06;0.00;60892.56;4707057;29;19947;-89
2022/03/24 12:37:47;;;;;;;;;;;;;;;-145.06;0.00;60892.56;4703902;29;19916;-88
2022/03/24 12:40:26;;;;;;;;;;;;;;;-145.06;0.00;60892.56;4706637;29;20010;-89
2022/03/24 12:43:06;;;;;;;;;;;;;;;-145.06;0.00;60892.56;4710477;29;19919;-90
2022/03/24 12:45:45;;;;;;;;;;;;;;;-145.06;0.00;60892.56;4707317;29;19915;-90
2022/03/24 12:48:37;;;;;;;;;;;;;;;-145.06;0.00;60892.56;4706476;29;19919;-90
2022/03/24 12:51:20;;;;;;;;;;;;;;;20.77;0.00;60892.56;4693686;29;20271;-90
2022/03/24 12:54:03;;;;;;;;;;;;;;;20.80;0.00;60892.56;4710514;29;19916;-90
2022/03/24 12:56:43;;;;;;;;;;;;;;;20.82;0.00;60892.56;4698596;29;19967;-90
2022/03/24 12:59:21;;;;;;;;;;;;;;;20.86;0.00;60892.56;4707211;29;19912;-90
2022/03/24 13:02:00;;;;;;;;;;;;;;;20.92;0.00;60892.56;4708331;29;19916;-90
2022/03/24 13:04:42;;;;;;;;;;;;;;;21.00;0.00;104794.97;4707000;29;19916;-89
2022/03/24 13:07:22;;;;;;;;;;;;;;;21.06;0.00;60892.56;4714818;29;19959;-88
2022/03/24 13:10:03;;;;;;;;;;;;;;;-145.06;0.00;60892.56;4709564;29;19947;-90
2022/03/24 13:12:43;;;;;;;;;;;;;;;21.06;0.00;81615.47;4707770;29;20307;-91
2022/03/24 13:15:27;;;;;;;;;;;;;;;21.03;0.00;60892.56;4703670;29;19915;-91
2022/03/24 13:18:08;;;;;;;;;;;;;;;-145.06;0.00;60892.56;4705384;29;20032;-89
2022/03/24 13:20:50;;;;;;;;;;;;;;;-145.06;0.00;60892.56;4702890;29;19923;-90
2022/03/24 13:23:29;;;;;;;;;;;;;;;21.00;0.00;60892.56;4708506;29;19916;-90
2022/03/24 13:26:08;;;;;;;;;;;;;;;20.97;0.00;60892.56;4702767;29;19920;-90
2022/03/24 13:28:53;;;;;;;;;;;;;;;20.93;0.00;60892.56;4702687;29;19923;-89
2022/03/24 13:31:32;;;;;;;;;;;;;;;20.93;0.00;60892.56;4710653;29;20367;-90
2022/03/24 13:34:13;;;;;;;;;;;;;;;20.94;0.00;60892.56;4702980;29;19919;-90
2022/03/24 13:36:52;;;;;;;;;;;;;;;20.96;0.00;60892.56;4703771;29;19919;-89
2022/03/24 13:39:32;;;;;;;;;;;;;;;20.96;0.00;60892.56;4704877;29;20555;-91
2022/03/24 13:42:34;;;;;;;;;;;;;;;20.94;0.00;60892.56;4702573;29;20501;-90
2022/03/24 13:45:16;;;;;;;;;;;;;;;20.90;0.00;60892.56;4703074;29;19919;-90
2022/03/24 13:48:00;;;;;;;;;;;;;;;20.87;0.00;60892.56;4705012;29;19923;-89
2022/03/24 13:50:40;;;;;;;;;;;;;;;20.84;0.00;60892.56;4697829;29;19920;-90
2022/03/24 13:53:20;;;;;;;;;;;;;;;20.81;0.00;60892.56;4701856;29;20266;-90
2022/03/24 13:56:10;;;;;;;;;;;;;;;20.78;0.00;60892.56;4704757;29;19919;-90